KLWT/LWT METAR and TAF weather

Enter ICAO airport designator
Station Type Date Time Source
KLWT METAR 2019/08/23 16:02 UTC NOAA

KLWT 231602Z AUTO 31006KT 10SM FEW005 OVC016 14/13 A3008 RMK AO2 T01440128 TSNO


Station Type Date Time Source
KLWT Decoded METAR 2019/08/23 16:02 UTC NOAA

Station name not available
Aug 23, 2019 - 12:02 PM EDT / 2019.08.23 1602 UTC
Wind: from the NW (310 degrees) at 7 MPH (6 KT):0
Visibility: 10 mile(s):0
Sky conditions: overcast
Temperature: 57.9 F (14.4 C)
Dew Point: 55.0 F (12.8 C)
Relative Humidity: 90%
Pressure (altimeter): 30.08 in. Hg (1018 hPa)
ob: KLWT 231602Z AUTO 31006KT 10SM FEW005 OVC016 14/13 A3008 RMK AO2 T01440128 TSNO
cycle: 16

Station Type Date Time Source
KLWT TAF 2019/08/23 15:58 UTC NOAA

TAF
AMD KLWT 231458Z 2315/2412 VRB04KT P6SM BKN015 BKN060
TEMPO 2315/2317 SCT015
FM231700 24006KT P6SM SCT015 SCT050
FM240700 12007KT P6SM SCT060 BKN250

Example: see airport list